Time;durP1;ratioP1;P1;durP2;ratioP2;P2;SDS_P1;SDS_P2;PMS_P1;PMS_P2;Temp;Humidity;BMP_temperature;BMP_pressure;BME280_temperature;BME280_humidity;BME280_pressure;Samples;Min_cycle;Max_cycle;Signal;HPM_P1;HPM_P2
2023/04/30 00:02:20;;;;;;;12.30;5.65;;;6.80;99.90;;;;;;5053565;28;20043;-61
2023/04/30 00:04:45;;;;;;;13.27;5.32;;;6.80;99.90;;;;;;5053658;28;20360;-61
2023/04/30 00:07:11;;;;;;;10.88;5.40;;;6.80;99.90;;;;;;5054813;28;20390;-61
2023/04/30 00:09:37;;;;;;;9.50;5.88;;;6.70;99.90;;;;;;5054766;28;20498;-61
2023/04/30 00:12:02;;;;;;;9.82;4.85;;;6.70;99.90;;;;;;5055032;28;20106;-61
2023/04/30 00:14:28;;;;;;;12.85;5.20;;;6.60;99.90;;;;;;5037446;28;20037;-61
2023/04/30 00:16:54;;;;;;;12.10;5.18;;;6.60;99.90;;;;;;5055238;28;20108;-60
2023/04/30 00:19:19;;;;;;;11.45;6.18;;;6.60;99.90;;;;;;5052973;28;20449;-61
2023/04/30 00:21:45;;;;;;;9.57;5.07;;;6.60;99.90;;;;;;5055703;28;20037;-60
2023/04/30 00:24:11;;;;;;;10.77;4.30;;;6.50;99.90;;;;;;5054161;28;20033;-60
2023/04/30 00:26:37;;;;;;;9.32;5.60;;;6.50;99.90;;;;;;5052610;28;20036;-60
2023/04/30 00:29:02;;;;;;;11.65;6.07;;;6.50;99.90;;;;;;5054457;28;20128;-61
2023/04/30 00:31:28;;;;;;;13.05;5.90;;;6.40;99.90;;;;;;5054628;28;20041;-61
2023/04/30 00:33:53;;;;;;;12.23;4.85;;;6.40;99.90;;;;;;5036709;28;20037;-60
2023/04/30 00:36:19;;;;;;;10.55;5.00;;;6.40;99.90;;;;;;5055015;28;20444;-61
2023/04/30 00:38:45;;;;;;;11.30;4.50;;;6.40;99.90;;;;;;5054158;28;20393;-61
2023/04/30 00:41:10;;;;;;;10.43;5.70;;;6.30;99.90;;;;;;5052986;28;20041;-60
2023/04/30 00:43:36;;;;;;;12.00;6.18;;;6.30;99.90;;;;;;5054307;28;20041;-60
2023/04/30 00:46:04;;;;;;;12.10;6.32;;;6.30;99.90;;;;;;5070650;28;20084;-61
2023/04/30 00:48:29;;;;;;;11.82;7.30;;;6.30;99.90;;;;;;5068919;28;20486;-66
2023/04/30 00:50:55;;;;;;;13.07;6.70;;;6.30;99.90;;;;;;5053988;28;20048;-66
2023/04/30 00:53:21;;;;;;;11.27;5.82;;;6.30;99.90;;;;;;5053129;28;20386;-61
2023/04/30 00:55:47;;;;;;;10.68;5.90;;;6.30;99.90;;;;;;5053074;28;20037;-60
2023/04/30 00:58:13;;;;;;;9.02;4.97;;;6.30;99.90;;;;;;5053670;28;20033;-60
2023/04/30 01:00:45;;;;;;;10.77;5.85;;;6.30;99.90;;;;;;5052745;28;20045;-61
2023/04/30 01:03:14;;;;;;;9.40;5.18;;;6.30;99.90;;;;;;5053498;28;20547;-61
2023/04/30 01:05:40;;;;;;;9.57;6.00;;;6.30;99.90;;;;;;5054317;28;20116;-61
2023/04/30 01:08:07;;;;;;;10.50;6.22;;;6.40;99.90;;;;;;5052836;28;20518;-61
2023/04/30 01:11:00;;;;;;;12.05;5.88;;;6.40;99.90;;;;;;5035993;28;20136;-61
2023/04/30 01:13:38;;;;;;;12.85;5.65;;;6.50;99.90;;;;;;5052493;28;20041;-61
2023/04/30 01:16:13;;;;;;;18.38;6.55;;;6.50;99.90;;;;;;5052326;28;20045;-61
2023/04/30 01:18:43;;;;;;;13.88;6.53;;;6.60;99.90;;;;;;5053082;28;20370;-60
2023/04/30 01:21:08;;;;;;;17.30;6.40;;;6.60;99.90;;;;;;5053139;28;20489;-61
2023/04/30 01:23:46;;;;;;;11.65;6.47;;;6.70;99.90;;;;;;5034814;28;20052;-61
2023/04/30 01:26:33;;;;;;;31.92;14.07;;;6.70;99.90;;;;;;5053380;28;20045;-60
2023/04/30 01:29:01;;;;;;;23.60;10.55;;;6.80;99.90;;;;;;5053400;28;20033;-61
2023/04/30 01:31:27;;;;;;;23.95;10.57;;;6.80;99.90;;;;;;5052160;28;20055;-60
2023/04/30 01:33:53;;;;;;;16.60;7.10;;;6.80;99.90;;;;;;5052743;28;20037;-61
2023/04/30 01:36:31;;;;;;;16.13;6.25;;;6.80;99.90;;;;;;5051537;28;20033;-61
2023/04/30 01:39:07;;;;;;;10.38;5.43;;;6.90;99.90;;;;;;5052768;28;20040;-61
2023/04/30 01:42:02;;;;;;;9.85;5.20;;;6.90;99.90;;;;;;5052143;28;20079;-61
2023/04/30 01:45:05;;;;;;;13.07;5.63;;;6.90;99.90;;;;;;5047376;28;20051;-61
2023/04/30 01:47:54;;;;;;;14.77;6.53;;;6.90;99.90;;;;;;5052021;28;20275;-61
2023/04/30 01:50:43;;;;;;;12.57;6.30;;;7.00;99.90;;;;;;5052592;28;20044;-61
2023/04/30 01:53:15;;;;;;;14.98;5.93;;;7.00;99.90;;;;;;5052446;28;20045;-60
2023/04/30 01:55:49;;;;;;;11.88;5.88;;;7.00;99.90;;;;;;5052036;28;20059;-61
2023/04/30 01:58:16;;;;;;;12.02;5.32;;;7.00;99.90;;;;;;5051176;28;20041;-61
2023/04/30 02:00:42;;;;;;;9.57;4.95;;;7.10;99.90;;;;;;5052281;28;20049;-61
2023/04/30 02:03:08;;;;;;;10.48;5.13;;;7.10;99.90;;;;;;5052173;28;20047;-60
2023/04/30 02:05:33;;;;;;;10.90;4.78;;;7.10;99.90;;;;;;5050883;28;20051;-61
2023/04/30 02:07:59;;;;;;;11.93;5.68;;;7.10;99.90;;;;;;5052159;28;20041;-60
2023/04/30 02:10:26;;;;;;;9.07;4.25;;;7.20;99.90;;;;;;5052650;28;20410;-61
2023/04/30 02:12:52;;;;;;;12.20;5.50;;;7.20;99.90;;;;;;5051446;28;20087;-61
2023/04/30 02:15:18;;;;;;;11.73;5.82;;;7.20;99.90;;;;;;5051596;28;20056;-60
2023/04/30 02:17:43;;;;;;;17.85;6.40;;;7.20;99.90;;;;;;5052905;28;20033;-61
2023/04/30 02:20:10;;;;;;;17.08;6.90;;;7.20;99.90;;;;;;5052240;28;20540;-60
2023/04/30 02:22:36;;;;;;;12.07;5.97;;;7.30;99.90;;;;;;5051048;28;20049;-61
2023/04/30 02:25:02;;;;;;;9.38;4.47;;;7.20;99.90;;;;;;5051350;28;20037;-61
2023/04/30 02:27:30;;;;;;;13.68;4.55;;;7.30;99.90;;;;;;5051789;28;20128;-60
2023/04/30 02:29:56;;;;;;;10.13;5.38;;;7.30;99.90;;;;;;5053091;28;20044;-60
2023/04/30 02:32:22;;;;;;;14.00;5.38;;;7.30;99.90;;;;;;5051528;28;20056;-60
2023/04/30 02:34:48;;;;;;;13.88;5.13;;;7.30;99.90;;;;;;5051497;28;20045;-61
2023/04/30 02:37:13;;;;;;;10.27;4.28;;;7.30;99.90;;;;;;5051653;28;20114;-61
2023/04/30 02:39:40;;;;;;;9.60;4.47;;;7.30;99.90;;;;;;5050295;28;20546;-60
2023/04/30 02:42:06;;;;;;;9.05;4.10;;;7.30;99.90;;;;;;5051903;28;20099;-61
2023/04/30 02:44:32;;;;;;;11.23;3.83;;;7.30;99.90;;;;;;5051039;28;20056;-61
2023/04/30 02:46:58;;;;;;;9.90;4.03;;;7.30;99.90;;;;;;5050787;28;20056;-61
2023/04/30 02:49:24;;;;;;;9.90;4.03;;;7.30;99.90;;;;;;5050822;28;20037;-60
2023/04/30 02:51:49;;;;;;;10.98;4.00;;;7.30;99.90;;;;;;5051371;28;20052;-61
2023/04/30 02:54:15;;;;;;;8.70;3.75;;;7.20;99.90;;;;;;5050143;28;20037;-60
2023/04/30 02:56:42;;;;;;;11.80;4.75;;;7.20;99.90;;;;;;5034730;28;20048;-60
2023/04/30 02:59:08;;;;;;;9.27;4.00;;;7.20;99.90;;;;;;5052605;28;20053;-61
2023/04/30 03:01:34;;;;;;;8.52;3.67;;;7.20;99.90;;;;;;5049932;28;20032;-61
2023/04/30 03:03:59;;;;;;;15.18;4.63;;;7.20;99.90;;;;;;5051146;28;20048;-61
2023/04/30 03:06:25;;;;;;;10.25;4.00;;;7.20;99.90;;;;;;5053203;28;20041;-61
2023/04/30 03:08:51;;;;;;;15.45;4.57;;;7.20;99.90;;;;;;5067308;28;20037;-60
2023/04/30 03:11:16;;;;;;;14.20;4.60;;;7.20;99.90;;;;;;5048252;28;20132;-60
2023/04/30 03:13:42;;;;;;;11.85;4.32;;;7.20;99.90;;;;;;5067340;28;20053;-60
2023/04/30 03:16:08;;;;;;;10.75;4.53;;;7.20;99.90;;;;;;5050270;28;20037;-60
2023/04/30 03:18:33;;;;;;;9.93;3.95;;;7.20;99.90;;;;;;5050303;28;20547;-61
2023/04/30 03:20:59;;;;;;;14.15;4.47;;;7.20;99.90;;;;;;5051266;28;20389;-60
2023/04/30 03:23:28;;;;;;;11.43;4.30;;;7.20;99.90;;;;;;5050931;28;20429;-60
2023/04/30 03:25:53;;;;;;;11.50;4.03;;;7.20;99.90;;;;;;5052119;28;20041;-60
2023/04/30 03:28:19;;;;;;;9.23;4.03;;;7.20;99.90;;;;;;5050566;28;20044;-60
2023/04/30 03:30:45;;;;;;;7.03;3.58;;;7.20;99.90;;;;;;5050017;28;20080;-61
2023/04/30 03:33:11;;;;;;;7.55;3.75;;;7.20;99.90;;;;;;5051921;28;20505;-60
2023/04/30 03:35:37;;;;;;;9.05;3.80;;;7.20;99.90;;;;;;5050547;28;20053;-60
2023/04/30 03:38:03;;;;;;;8.10;3.50;;;7.20;99.90;;;;;;5034235;28;20045;-61
2023/04/30 03:40:28;;;;;;;7.88;3.60;;;7.20;99.90;;;;;;5050052;28;20490;-60
2023/04/30 03:42:54;;;;;;;18.13;5.15;;;7.20;99.90;;;;;;5049947;28;20116;-60
2023/04/30 03:45:20;;;;;;;9.98;4.22;;;7.20;99.90;;;;;;5050164;28;20457;-61
2023/04/30 03:47:46;;;;;;;10.52;4.53;;;7.10;99.90;;;;;;5050660;28;20041;-61
2023/04/30 03:50:12;;;;;;;10.05;4.80;;;7.10;99.90;;;;;;5049897;28;20090;-60
2023/04/30 03:52:38;;;;;;;8.13;3.17;;;7.10;99.90;;;;;;5050305;28;20052;-60
2023/04/30 03:55:04;;;;;;;8.43;3.17;;;7.00;99.90;;;;;;5034099;28;20419;-61
2023/04/30 03:57:31;;;;;;;8.32;3.38;;;7.00;99.90;;;;;;5049049;28;20037;-60
2023/04/30 03:59:57;;;;;;;8.82;3.53;;;6.90;99.90;;;;;;5051765;28;20124;-60
2023/04/30 04:02:22;;;;;;;10.85;3.58;;;6.90;99.90;;;;;;5051339;28;20159;-60
2023/04/30 04:04:49;;;;;;;11.00;4.13;;;6.90;99.90;;;;;;5032966;28;20037;-60
2023/04/30 04:07:15;;;;;;;9.02;4.03;;;6.80;99.90;;;;;;5051464;28;20041;-60
2023/04/30 04:09:41;;;;;;;11.50;3.30;;;6.80;99.90;;;;;;5051205;28;20052;-61
2023/04/30 04:12:07;;;;;;;10.15;3.05;;;6.80;99.90;;;;;;5049666;28;20115;-60
2023/04/30 04:14:32;;;;;;;12.45;4.38;;;6.80;99.90;;;;;;5049917;28;20132;-60
2023/04/30 04:17:04;;;;;;;9.90;4.10;;;6.80;99.90;;;;;;5051069;28;20124;-60
2023/04/30 04:19:30;;;;;;;8.23;3.20;;;6.70;99.90;;;;;;5048845;28;20041;-61
2023/04/30 04:21:56;;;;;;;11.73;3.65;;;6.70;99.90;;;;;;5051795;28;20185;-60
2023/04/30 04:24:24;;;;;;;8.70;3.55;;;6.70;99.90;;;;;;5050143;28;20102;-60
2023/04/30 04:26:50;;;;;;;11.25;4.10;;;6.70;99.90;;;;;;5049440;28;20036;-61
2023/04/30 04:29:16;;;;;;;11.55;4.85;;;6.80;99.90;;;;;;5050043;28;20041;-60
2023/04/30 04:31:42;;;;;;;12.35;5.57;;;6.80;99.90;;;;;;5049367;28;20532;-60
2023/04/30 04:34:08;;;;;;;18.38;9.27;;;6.80;99.90;;;;;;5049792;28;20044;-61
2023/04/30 04:36:34;;;;;;;12.48;5.93;;;6.80;99.90;;;;;;5050560;28;20045;-60
2023/04/30 04:39:00;;;;;;;9.73;4.60;;;6.80;99.90;;;;;;5049550;28;20045;-60
2023/04/30 04:41:31;;;;;;;14.60;6.20;;;6.80;99.90;;;;;;5032949;28;20071;-61
2023/04/30 04:44:00;;;;;;;13.73;6.88;;;6.90;99.90;;;;;;5033889;28;20398;-61
2023/04/30 04:46:27;;;;;;;18.08;6.72;;;6.90;99.90;;;;;;5049114;28;20405;-60
2023/04/30 04:48:53;;;;;;;15.88;7.00;;;6.90;99.90;;;;;;5053791;28;20436;-60
2023/04/30 04:51:18;;;;;;;14.48;5.68;;;7.00;99.90;;;;;;5054586;28;20603;-60
2023/04/30 04:53:44;;;;;;;13.20;4.97;;;7.00;99.90;;;;;;5036434;28;20127;-60
2023/04/30 04:56:10;;;;;;;10.27;5.45;;;7.00;99.90;;;;;;5053531;28;20076;-60
2023/04/30 04:58:36;;;;;;;8.63;4.13;;;7.10;99.90;;;;;;5053104;28;20425;-60
2023/04/30 05:01:03;;;;;;;12.57;4.00;;;7.10;99.90;;;;;;5035947;28;20040;-60
2023/04/30 05:03:30;;;;;;;12.23;5.32;;;7.10;99.90;;;;;;5054227;28;20094;-60
2023/04/30 05:05:55;;;;;;;9.48;3.95;;;7.20;99.90;;;;;;5054626;28;20056;-60
2023/04/30 05:08:21;;;;;;;11.40;4.03;;;7.20;99.90;;;;;;5035374;28;20044;-61
2023/04/30 05:10:47;;;;;;;10.23;4.47;;;7.20;99.90;;;;;;5052966;28;20064;-60
2023/04/30 05:13:13;;;;;;;8.45;3.65;;;7.20;99.90;;;;;;5053276;28;20110;-60
2023/04/30 05:15:38;;;;;;;12.18;3.70;;;7.30;99.90;;;;;;5035001;28;20047;-60
2023/04/30 05:18:04;;;;;;;12.20;4.82;;;7.30;99.90;;;;;;5053191;28;20037;-60
2023/04/30 05:20:30;;;;;;;13.45;4.05;;;7.30;99.90;;;;;;5052818;28;20041;-60
2023/04/30 05:22:55;;;;;;;10.95;4.35;;;7.40;99.90;;;;;;5052259;28;20552;-60
2023/04/30 05:25:21;;;;;;;9.88;4.13;;;7.40;99.90;;;;;;5052188;28;20033;-60
2023/04/30 05:27:47;;;;;;;10.27;4.35;;;7.40;99.90;;;;;;5052906;28;20604;-61
2023/04/30 05:30:14;;;;;;;10.55;4.80;;;7.40;99.90;;;;;;5052157;28;20029;-61
2023/04/30 05:32:40;;;;;;;11.00;3.75;;;7.50;99.90;;;;;;5035871;28;20084;-61
2023/04/30 05:35:06;;;;;;;10.57;3.45;;;7.50;99.90;;;;;;5053263;28;20471;-61
2023/04/30 05:37:32;;;;;;;11.43;3.55;;;7.60;99.90;;;;;;5052142;28;20041;-61
2023/04/30 05:39:58;;;;;;;10.23;3.63;;;7.60;99.90;;;;;;5052782;28;20452;-60
2023/04/30 05:42:23;;;;;;;9.05;3.42;;;7.70;99.90;;;;;;5051660;28;20439;-60
2023/04/30 05:44:49;;;;;;;11.82;4.10;;;7.70;99.90;;;;;;5054042;28;20041;-61
2023/04/30 05:47:15;;;;;;;12.80;4.18;;;7.70;99.90;;;;;;5052414;28;20057;-61
2023/04/30 05:49:40;;;;;;;13.40;4.10;;;7.80;99.90;;;;;;5051850;28;20401;-60
2023/04/30 05:52:06;;;;;;;12.63;3.88;;;7.80;99.90;;;;;;5052534;28;20509;-60
2023/04/30 05:54:32;;;;;;;13.75;3.20;;;7.90;99.90;;;;;;5051569;28;20041;-61
2023/04/30 05:56:58;;;;;;;11.65;3.65;;;7.90;99.90;;;;;;5051444;28;20039;-60
2023/04/30 05:59:24;;;;;;;10.38;4.00;;;8.00;99.90;;;;;;5052080;28;20496;-60
2023/04/30 06:01:50;;;;;;;8.65;3.75;;;8.00;99.90;;;;;;5035938;28;20481;-60
2023/04/30 06:04:16;;;;;;;9.98;4.03;;;8.00;99.90;;;;;;5052585;28;20103;-60
2023/04/30 06:06:42;;;;;;;12.85;8.68;;;8.10;99.90;;;;;;5051718;28;20478;-61
2023/04/30 06:09:08;;;;;;;10.15;4.28;;;8.10;99.90;;;;;;5053427;28;20106;-60
2023/04/30 06:11:34;;;;;;;7.68;3.67;;;8.20;99.90;;;;;;5041054;28;20475;-60
2023/04/30 06:14:00;;;;;;;11.82;3.72;;;8.20;99.90;;;;;;5041046;28;20091;-61
2023/04/30 06:16:25;;;;;;;14.07;4.68;;;8.30;99.90;;;;;;5051476;28;20041;-60
2023/04/30 06:18:51;;;;;;;8.20;3.90;;;8.30;99.90;;;;;;5051342;28;20124;-61
2023/04/30 06:21:17;;;;;;;11.30;7.20;;;8.40;99.90;;;;;;5052893;28;20041;-61
2023/04/30 06:23:42;;;;;;;13.23;3.78;;;8.40;99.90;;;;;;5045074;28;20526;-60
2023/04/30 06:26:08;;;;;;;10.57;4.57;;;8.40;99.90;;;;;;5044032;28;20065;-61
2023/04/30 06:28:34;;;;;;;6.80;3.28;;;8.40;99.90;;;;;;5050207;28;20076;-61
2023/04/30 06:31:00;;;;;;;8.05;3.78;;;8.40;99.90;;;;;;5049222;28;20055;-61
2023/04/30 06:33:25;;;;;;;13.55;4.32;;;8.60;99.90;;;;;;5048016;28;20088;-62
2023/04/30 06:35:54;;;;;;;9.30;3.28;;;8.60;99.90;;;;;;5050422;28;20080;-61
2023/04/30 06:38:20;;;;;;;11.52;3.92;;;8.70;99.90;;;;;;5031526;28;20072;-61
2023/04/30 06:40:45;;;;;;;11.65;3.60;;;8.80;99.90;;;;;;5049307;28;20079;-61
2023/04/30 06:43:11;;;;;;;14.88;3.83;;;8.80;99.90;;;;;;5049237;28;20489;-60
2023/04/30 06:45:37;;;;;;;8.95;3.83;;;8.90;99.90;;;;;;5049583;28;20036;-60
2023/04/30 06:48:03;;;;;;;11.00;3.45;;;8.90;99.90;;;;;;5048802;28;20080;-60
2023/04/30 06:50:29;;;;;;;10.63;3.78;;;8.90;99.90;;;;;;5031915;28;20080;-60
2023/04/30 06:52:54;;;;;;;11.65;5.13;;;9.00;99.90;;;;;;5049444;28;20079;-61
2023/04/30 06:55:20;;;;;;;10.25;5.07;;;9.00;99.90;;;;;;5047453;28;20465;-60
2023/04/30 06:57:46;;;;;;;11.15;3.85;;;9.00;99.90;;;;;;5048910;28;20036;-60
2023/04/30 07:00:14;;;;;;;9.65;3.50;;;9.10;99.90;;;;;;5045564;28;20062;-61
2023/04/30 07:02:40;;;;;;;12.55;4.18;;;9.10;99.90;;;;;;5047314;28;20102;-61
2023/04/30 07:05:06;;;;;;;10.02;3.60;;;9.10;99.90;;;;;;5047981;28;20048;-61
2023/04/30 07:07:32;;;;;;;9.82;3.78;;;9.10;99.90;;;;;;5030575;28;20052;-61
2023/04/30 07:09:58;;;;;;;11.48;3.88;;;9.20;99.90;;;;;;5047839;28;20417;-61
2023/04/30 07:12:24;;;;;;;8.82;3.58;;;9.20;99.90;;;;;;5048731;28;20136;-61
2023/04/30 07:14:49;;;;;;;10.27;3.85;;;9.20;99.90;;;;;;5048745;28;20067;-61
2023/04/30 07:17:15;;;;;;;13.48;3.85;;;9.20;99.90;;;;;;5048945;28;20044;-61
2023/04/30 07:19:41;;;;;;;10.18;4.63;;;9.20;99.90;;;;;;5048053;28;20116;-61
2023/04/30 07:22:06;;;;;;;8.48;3.60;;;9.30;99.90;;;;;;5048300;28;20505;-61
2023/04/30 07:24:33;;;;;;;7.30;3.17;;;9.40;99.90;;;;;;5047246;28;20037;-61
2023/04/30 07:27:06;;;;;;;12.38;3.50;;;9.50;99.90;;;;;;5047792;28;20041;-61
2023/04/30 07:29:32;;;;;;;10.57;4.65;;;9.60;99.90;;;;;;5046554;28;20108;-61
2023/04/30 07:31:58;;;;;;;8.93;4.03;;;9.60;99.90;;;;;;5048210;28;20041;-61
2023/04/30 07:34:24;;;;;;;9.45;3.45;;;9.70;99.90;;;;;;5047547;28;20048;-61
2023/04/30 07:36:50;;;;;;;9.02;3.40;;;9.70;99.90;;;;;;5046967;28;20044;-62
2023/04/30 07:39:16;;;;;;;12.50;2.80;;;9.80;99.90;;;;;;5047581;28;20409;-61
2023/04/30 07:41:42;;;;;;;7.03;2.47;;;9.80;99.90;;;;;;5046956;28;20084;-60
2023/04/30 07:44:08;;;;;;;10.15;3.22;;;9.90;99.90;;;;;;5031010;28;20107;-60
2023/04/30 07:46:35;;;;;;;8.98;3.05;;;9.90;99.90;;;;;;5046994;28;20049;-61
2023/04/30 07:49:01;;;;;;;7.97;3.10;;;9.90;99.90;;;;;;5063400;28;20095;-61
2023/04/30 07:51:27;;;;;;;6.75;2.67;;;10.00;99.90;;;;;;5063879;28;20119;-61
2023/04/30 07:53:53;;;;;;;10.82;4.22;;;10.10;99.90;;;;;;5049576;28;20052;-61
2023/04/30 07:56:20;;;;;;;10.88;3.10;;;10.10;99.90;;;;;;5047081;28;20410;-61
2023/04/30 07:58:46;;;;;;;12.20;3.25;;;10.20;99.90;;;;;;5043822;28;20051;-61
2023/04/30 08:01:12;;;;;;;10.52;3.20;;;10.30;99.90;;;;;;5046558;28;20045;-61
2023/04/30 08:03:39;;;;;;;8.73;3.63;;;10.40;99.90;;;;;;5046457;28;20098;-61
2023/04/30 08:06:06;;;;;;;12.25;3.88;;;10.50;99.90;;;;;;5048087;28;20044;-61
2023/04/30 08:08:32;;;;;;;10.38;3.05;;;10.60;99.90;;;;;;5029943;28;20052;-61
2023/04/30 08:10:58;;;;;;;11.25;3.40;;;10.60;99.90;;;;;;5043344;28;20417;-61
2023/04/30 08:13:23;;;;;;;10.13;3.30;;;10.70;99.90;;;;;;5063477;28;20049;-61
2023/04/30 08:15:49;;;;;;;9.18;2.97;;;10.70;99.90;;;;;;5030435;28;20072;-61
2023/04/30 08:18:15;;;;;;;11.95;4.13;;;10.70;99.90;;;;;;5046964;28;20045;-61
2023/04/30 08:20:41;;;;;;;9.68;3.80;;;10.80;99.90;;;;;;5046632;28;20078;-61
2023/04/30 08:23:07;;;;;;;10.25;3.50;;;10.90;99.90;;;;;;5051729;28;20032;-61
2023/04/30 08:25:33;;;;;;;13.68;3.22;;;10.90;99.90;;;;;;5049897;28;20052;-61
2023/04/30 08:27:58;;;;;;;8.70;3.38;;;11.00;99.90;;;;;;5051700;28;20048;-61
2023/04/30 08:30:24;;;;;;;7.97;3.80;;;11.10;99.90;;;;;;5032798;28;20052;-61
2023/04/30 08:32:50;;;;;;;11.30;4.30;;;11.10;99.90;;;;;;5034016;28;20041;-61
2023/04/30 08:35:16;;;;;;;9.38;3.45;;;11.20;99.90;;;;;;5050519;28;20536;-61
2023/04/30 08:37:42;;;;;;;9.02;3.45;;;11.20;99.90;;;;;;5050265;28;20037;-61
2023/04/30 08:40:11;;;;;;;11.48;5.10;;;11.20;99.90;;;;;;5050065;28;20033;-61
2023/04/30 08:42:39;;;;;;;8.45;3.88;;;11.20;99.90;;;;;;5050207;28;20073;-61
2023/04/30 08:45:09;;;;;;;11.02;3.55;;;11.20;99.90;;;;;;5039075;28;20041;-61
2023/04/30 08:47:37;;;;;;;9.50;2.90;;;11.20;99.90;;;;;;5033255;28;20049;-61
2023/04/30 08:50:03;;;;;;;9.63;3.38;;;11.10;99.90;;;;;;5051961;28;20044;-61
2023/04/30 08:52:32;;;;;;;6.93;2.90;;;11.10;99.90;;;;;;5049314;28;20127;-61
2023/04/30 08:55:00;;;;;;;8.32;3.50;;;11.10;99.90;;;;;;5050941;28;20045;-61
2023/04/30 08:57:26;;;;;;;6.75;2.90;;;11.10;99.90;;;;;;5051471;28;20041;-61
2023/04/30 08:59:53;;;;;;;8.07;3.60;;;11.10;99.90;;;;;;5049790;28;20075;-61
2023/04/30 09:02:19;;;;;;;6.15;3.10;;;11.10;99.90;;;;;;5051503;28;20470;-61
2023/04/30 09:04:45;;;;;;;8.27;3.55;;;11.10;99.90;;;;;;5049773;28;20397;-61
2023/04/30 09:07:13;;;;;;;6.45;2.53;;;11.10;99.90;;;;;;5049846;28;20389;-61
2023/04/30 09:09:39;;;;;;;9.63;3.50;;;11.20;99.90;;;;;;5050878;28;20049;-62
2023/04/30 09:12:16;;;;;;;7.55;3.20;;;11.30;99.90;;;;;;5050257;28;20525;-61
2023/04/30 09:15:03;;;;;;;14.30;4.35;;;11.30;99.90;;;;;;5049214;28;20776;-62
2023/04/30 09:17:33;;;;;;;8.07;3.22;;;11.30;99.90;;;;;;5050031;28;20126;-61
2023/04/30 09:20:12;;;;;;;13.65;3.88;;;11.30;99.90;;;;;;5050952;28;20056;-62
2023/04/30 09:22:40;;;;;;;9.52;3.50;;;11.30;99.90;;;;;;5033955;28;20037;-61
2023/04/30 09:25:07;;;;;;;12.38;3.58;;;11.30;99.90;;;;;;5053650;28;20477;-61
2023/04/30 09:27:33;;;;;;;8.38;3.08;;;11.30;99.90;;;;;;5035151;28;20045;-61
2023/04/30 09:29:59;;;;;;;10.63;3.53;;;11.30;99.90;;;;;;5052728;28;20115;-61
2023/04/30 09:32:25;;;;;;;10.10;2.97;;;11.40;99.90;;;;;;5051052;28;20040;-60
2023/04/30 09:34:51;;;;;;;11.20;3.15;;;11.50;99.90;;;;;;5053180;28;20124;-60
2023/04/30 09:37:16;;;;;;;10.82;3.08;;;11.60;99.90;;;;;;5035827;28;20544;-61
2023/04/30 09:39:50;;;;;;;10.73;3.42;;;11.60;99.90;;;;;;5053526;28;20433;-61
2023/04/30 09:42:17;;;;;;;7.88;3.20;;;11.70;99.90;;;;;;5048471;28;20033;-61
2023/04/30 09:44:43;;;;;;;13.30;3.90;;;11.70;99.90;;;;;;5052508;28;20043;-61
2023/04/30 09:47:14;;;;;;;8.93;3.20;;;11.90;99.90;;;;;;5053904;28;20036;-61
2023/04/30 09:49:42;;;;;;;8.73;3.63;;;12.00;99.90;;;;;;5051527;28;20078;-61
2023/04/30 09:52:08;;;;;;;11.55;3.53;;;12.10;99.90;;;;;;5052733;28;20037;-61
2023/04/30 09:54:35;;;;;;;13.35;4.05;;;12.10;99.90;;;;;;5035330;28;20595;-61
2023/04/30 09:57:02;;;;;;;12.80;3.70;;;12.20;99.90;;;;;;5052990;28;20400;-61
2023/04/30 09:59:34;;;;;;;11.40;3.75;;;12.30;99.90;;;;;;5053135;28;20045;-61
2023/04/30 10:02:04;;;;;;;11.32;4.03;;;12.30;99.90;;;;;;5052672;28;20393;-61
2023/04/30 10:04:34;;;;;;;9.07;3.40;;;12.40;99.90;;;;;;5052135;28;20060;-61
2023/04/30 10:07:04;;;;;;;8.23;3.45;;;12.60;99.90;;;;;;5053610;28;20041;-61
2023/04/30 10:09:39;;;;;;;10.40;3.70;;;12.70;99.90;;;;;;5052350;28;20045;-61
2023/04/30 10:12:12;;;;;;;7.13;3.22;;;12.70;99.90;;;;;;5053585;28;20114;-61
2023/04/30 10:14:39;;;;;;;12.82;3.50;;;12.90;99.90;;;;;;5051662;28;20139;-61
2023/04/30 10:17:13;;;;;;;13.70;4.05;;;13.00;99.90;;;;;;5034549;28;20504;-61
2023/04/30 10:19:46;;;;;;;12.70;4.00;;;13.00;99.90;;;;;;5052820;28;20052;-61
2023/04/30 10:22:13;;;;;;;7.63;3.15;;;13.10;99.90;;;;;;5052250;28;20374;-61
2023/04/30 10:24:40;;;;;;;8.40;3.22;;;13.10;99.90;;;;;;5051905;28;20037;-61
2023/04/30 10:27:06;;;;;;;7.68;2.90;;;13.20;99.90;;;;;;5053335;28;20037;-61
2023/04/30 10:29:32;;;;;;;9.80;3.33;;;13.30;99.90;;;;;;5051194;28;20040;-61
2023/04/30 10:32:00;;;;;;;8.02;3.47;;;13.40;99.90;;;;;;5052444;28;20529;-61
2023/04/30 10:34:44;;;;;;;7.35;2.60;;;13.50;99.90;;;;;;5034600;28;20128;-61
2023/04/30 10:37:30;;;;;;;8.43;2.70;;;13.50;99.90;;;;;;5052916;28;20128;-61
2023/04/30 10:39:56;;;;;;;7.50;3.08;;;13.60;99.90;;;;;;5051582;28;20397;-61
2023/04/30 10:42:21;;;;;;;7.35;2.97;;;13.60;99.90;;;;;;5052199;28;20044;-62
2023/04/30 10:44:47;;;;;;;6.80;2.45;;;13.70;99.90;;;;;;5050448;28;20168;-61
2023/04/30 10:47:15;;;;;;;10.15;3.17;;;13.80;99.90;;;;;;5051583;28;20075;-61
2023/04/30 10:49:47;;;;;;;7.50;3.10;;;13.90;99.90;;;;;;5052507;28;20049;-61
2023/04/30 10:52:12;;;;;;;8.70;3.20;;;13.90;99.90;;;;;;5050895;28;20401;-61
2023/04/30 10:54:40;;;;;;;7.95;2.72;;;14.00;99.90;;;;;;5050987;28;20039;-61
2023/04/30 10:57:13;;;;;;;8.48;3.30;;;14.00;99.90;;;;;;5052884;28;20413;-61
2023/04/30 10:59:52;;;;;;;7.72;3.20;;;14.00;99.90;;;;;;5050155;28;20043;-61
2023/04/30 11:02:18;;;;;;;9.80;3.33;;;13.90;99.90;;;;;;5050919;28;20033;-61
2023/04/30 11:05:12;;;;;;;5.53;2.50;;;14.10;99.90;;;;;;5034402;28;20087;-61
2023/04/30 11:07:47;;;;;;;5.95;2.00;;;14.20;99.90;;;;;;5051224;28;20402;-61
2023/04/30 11:10:14;;;;;;;6.47;2.42;;;14.20;99.90;;;;;;5052265;28;20598;-61
2023/04/30 11:12:46;;;;;;;6.35;2.50;;;14.30;99.90;;;;;;5051121;28;20087;-61
2023/04/30 11:15:14;;;;;;;4.90;2.60;;;14.20;99.90;;;;;;5052175;28;20569;-61
2023/04/30 11:17:41;;;;;;;5.15;2.20;;;14.30;99.90;;;;;;5052226;28;20041;-61
2023/04/30 11:20:12;;;;;;;7.10;2.60;;;14.50;99.90;;;;;;5051640;28;20040;-61
2023/04/30 11:22:37;;;;;;;6.65;2.63;;;14.60;99.90;;;;;;5050589;28;20051;-61
2023/04/30 11:25:08;;;;;;;7.35;2.72;;;14.70;99.90;;;;;;5051058;28;20037;-61
2023/04/30 11:27:37;;;;;;;5.07;2.53;;;14.70;99.90;;;;;;5050685;28;20036;-61
2023/04/30 11:30:10;;;;;;;4.43;2.35;;;14.70;99.90;;;;;;5052052;28;20041;-61
2023/04/30 11:32:37;;;;;;;10.38;2.40;;;14.70;99.90;;;;;;5050467;28;20051;-61
2023/04/30 11:35:04;;;;;;;4.57;2.05;;;14.60;99.90;;;;;;5050253;28;20045;-61
2023/04/30 11:37:36;;;;;;;4.50;1.80;;;14.70;99.90;;;;;;5050082;28;20379;-61
2023/04/30 11:40:06;;;;;;;5.22;2.20;;;14.80;99.90;;;;;;5051031;28;20049;-61
2023/04/30 11:42:35;;;;;;;6.28;2.25;;;14.90;99.90;;;;;;5049218;28;20516;-61
2023/04/30 11:45:09;;;;;;;4.85;1.75;;;15.00;99.90;;;;;;5050667;28;20048;-61
2023/04/30 11:47:44;;;;;;;4.03;1.90;;;15.00;99.90;;;;;;5050007;28;20109;-61
2023/04/30 11:50:12;;;;;;;3.58;1.63;;;14.90;99.90;;;;;;5051712;28;20044;-61
2023/04/30 11:52:39;;;;;;;4.38;1.75;;;14.90;99.90;;;;;;5049941;28;20123;-61
2023/04/30 11:55:16;;;;;;;4.72;2.00;;;15.00;99.90;;;;;;5050175;28;20095;-61
2023/04/30 11:57:43;;;;;;;6.53;2.03;;;15.10;99.90;;;;;;5054300;28;20402;-61
2023/04/30 12:00:11;;;;;;;4.65;1.73;;;15.20;99.90;;;;;;5054561;28;20047;-61
2023/04/30 12:02:37;;;;;;;5.85;2.50;;;15.20;99.90;;;;;;5054479;28;20047;-62
2023/04/30 12:05:03;;;;;;;3.58;1.83;;;15.30;99.90;;;;;;5037938;28;20037;-62
2023/04/30 12:07:29;;;;;;;5.13;1.92;;;15.30;99.90;;;;;;5037397;28;20048;-61
2023/04/30 12:09:55;;;;;;;4.90;2.15;;;15.30;99.90;;;;;;5053714;28;20069;-61
2023/04/30 12:12:31;;;;;;;4.10;1.58;;;15.20;99.90;;;;;;5053734;28;20041;-61
2023/04/30 12:14:56;;;;;;;6.20;1.98;;;15.10;99.90;;;;;;5054349;28;20171;-61
2023/04/30 12:17:41;;;;;;;5.07;2.22;;;15.10;99.90;;;;;;5052923;28;20123;-61
2023/04/30 12:20:08;;;;;;;5.13;1.90;;;15.20;99.90;;;;;;5054390;28;20049;-61
2023/04/30 12:22:36;;;;;;;5.38;2.00;;;15.30;99.90;;;;;;5053658;28;20294;-61
2023/04/30 12:25:12;;;;;;;5.68;1.75;;;15.40;99.90;;;;;;5054754;28;20048;-61
2023/04/30 12:27:39;;;;;;;4.00;1.50;;;15.60;99.90;;;;;;5036901;28;20394;-61
2023/04/30 12:30:09;;;;;;;4.97;1.95;;;15.90;99.90;;;;;;5051006;28;20045;-61
2023/04/30 12:32:43;;;;;;;4.80;1.80;;;16.10;99.90;;;;;;5054548;28;20048;-61
2023/04/30 12:35:14;;;;;;;4.70;1.73;;;16.10;99.90;;;;;;5069152;28;20037;-61
2023/04/30 12:37:51;;;;;;;5.05;1.70;;;16.10;99.90;;;;;;5052483;28;20102;-61
2023/04/30 12:40:25;;;;;;;5.32;2.00;;;16.20;99.90;;;;;;5035021;28;20037;-61
2023/04/30 12:42:58;;;;;;;5.72;1.77;;;16.30;99.90;;;;;;5052587;28;20665;-61
2023/04/30 12:45:52;;;;;;;4.47;1.85;;;16.40;99.90;;;;;;5048437;28;20041;-61
2023/04/30 12:48:24;;;;;;;6.60;1.90;;;16.40;99.90;;;;;;5030740;28;20567;-61
2023/04/30 12:50:59;;;;;;;5.38;1.58;;;16.60;99.90;;;;;;5040816;28;20041;-61
2023/04/30 12:53:26;;;;;;;4.55;1.65;;;16.60;99.90;;;;;;5049294;28;20634;-61